createdAt,value
2019-03-19T00:00:39.933Z,69.60
2019-03-19T00:03:06.702Z,63.93
2019-03-19T00:05:33.397Z,69.00
2019-03-19T00:08:00.031Z,65.17
2019-03-19T00:10:26.777Z,57.33
2019-03-19T00:12:53.475Z,60.53
2019-03-19T00:15:20.211Z,59.07
2019-03-19T00:17:46.948Z,52.20
2019-03-19T00:20:13.644Z,57.83
2019-03-19T00:22:40.333Z,62.63
2019-03-19T00:25:07.034Z,61.33
2019-03-19T00:27:33.756Z,68.23
2019-03-19T00:30:00.485Z,63.50
2019-03-19T00:32:27.316Z,67.07
2019-03-19T00:34:54.005Z,56.40
2019-03-19T00:37:20.743Z,65.17
2019-03-19T00:39:47.605Z,53.37
2019-03-19T00:42:14.337Z,63.47
2019-03-19T00:44:41.054Z,55.23
2019-03-19T00:47:07.885Z,63.93
2019-03-19T00:49:34.531Z,60.70
2019-03-19T00:52:01.225Z,59.00
2019-03-19T00:54:27.983Z,48.90
2019-03-19T00:56:54.676Z,51.53
2019-03-19T00:59:21.368Z,52.77
2019-03-19T01:01:48.138Z,61.70
2019-03-19T01:04:15.110Z,55.63
2019-03-19T01:06:41.719Z,50.13
2019-03-19T01:09:08.497Z,55.17
2019-03-19T01:11:35.214Z,49.87
2019-03-19T01:14:01.937Z,47.37
2019-03-19T01:16:28.683Z,53.20
2019-03-19T01:18:55.378Z,53.67
2019-03-19T01:21:22.005Z,60.53
2019-03-19T01:23:48.799Z,46.77
2019-03-19T01:26:15.502Z,51.90
2019-03-19T01:28:42.230Z,50.70
2019-03-19T01:31:08.974Z,51.97
2019-03-19T01:33:35.589Z,49.13
2019-03-19T01:36:02.322Z,42.30
2019-03-19T01:38:29.062Z,48.03
2019-03-19T01:40:55.781Z,47.33
2019-03-19T01:43:22.480Z,52.57
2019-03-19T01:45:49.240Z,40.77
2019-03-19T01:48:15.866Z,57.50
2019-03-19T01:50:42.567Z,54.03
2019-03-19T01:53:09.390Z,48.53
2019-03-19T01:55:36.035Z,50.20
2019-03-19T01:58:02.729Z,46.07
2019-03-19T02:00:29.480Z,51.57
2019-03-19T02:02:56.207Z,59.00
2019-03-19T02:05:22.905Z,52.57
2019-03-19T02:07:49.659Z,44.03
2019-03-19T02:10:16.368Z,50.57
2019-03-19T02:12:43.121Z,51.77
2019-03-19T02:15:09.851Z,53.53
2019-03-19T02:17:36.575Z,44.00
2019-03-19T02:20:03.289Z,49.47
2019-03-19T02:22:30.075Z,45.30
2019-03-19T02:24:56.765Z,47.63
2019-03-19T02:27:23.483Z,47.37
2019-03-19T02:29:50.256Z,40.53
2019-03-19T02:32:16.944Z,40.70
2019-03-19T02:34:43.643Z,52.13
2019-03-19T02:37:10.470Z,42.80
2019-03-19T02:39:37.126Z,53.80
2019-03-19T02:42:03.807Z,41.73
2019-03-19T02:44:30.570Z,54.30
2019-03-19T02:46:57.269Z,45.77
2019-03-19T02:49:24.005Z,42.17
2019-03-19T02:51:50.816Z,46.73
2019-03-19T02:54:17.541Z,42.33
2019-03-19T02:56:44.230Z,50.20
2019-03-19T02:59:11.089Z,44.90
2019-03-19T03:01:37.790Z,44.00
2019-03-19T03:04:04.485Z,37.77
2019-03-19T03:06:31.234Z,42.17
2019-03-19T03:08:57.929Z,46.63
2019-03-19T03:11:24.570Z,38.83
2019-03-19T03:13:51.362Z,39.03
2019-03-19T03:16:18.045Z,42.53
2019-03-19T03:18:44.688Z,47.53
2019-03-19T03:21:11.442Z,36.43
2019-03-19T03:23:38.144Z,38.93
2019-03-19T03:26:04.834Z,42.43
2019-03-19T03:28:31.675Z,42.70
2019-03-19T03:30:58.377Z,38.60
2019-03-19T03:33:25.093Z,48.17
2019-03-19T03:35:51.865Z,38.23
2019-03-19T03:38:18.552Z,46.00
2019-03-19T03:40:45.171Z,40.30
2019-03-19T03:43:11.864Z,38.57
2019-03-19T03:45:38.574Z,36.57
2019-03-19T03:48:05.297Z,38.33
2019-03-19T03:50:32.438Z,44.07
2019-03-19T03:52:59.143Z,36.23
2019-03-19T03:55:25.823Z,40.80
2019-03-19T03:57:52.653Z,44.87
2019-03-19T04:00:19.350Z,44.47
2019-03-19T04:02:46.001Z,44.83
2019-03-19T04:05:12.810Z,45.83
2019-03-19T04:07:39.524Z,40.07
2019-03-19T04:10:06.252Z,31.43
2019-03-19T04:12:33.034Z,43.70
2019-03-19T04:14:59.730Z,34.43
2019-03-19T04:17:26.418Z,47.50
2019-03-19T04:19:53.220Z,40.63
2019-03-19T04:22:19.903Z,37.47
2019-03-19T04:24:46.595Z,57.00
2019-03-19T04:27:16.343Z,35.93
2019-03-19T04:29:41.624Z,33.57
2019-03-19T04:32:08.315Z,38.90
2019-03-19T04:34:35.014Z,44.40
2019-03-19T04:37:01.723Z,33.17
2019-03-19T04:39:28.453Z,48.57
2019-03-19T04:41:55.211Z,37.50
2019-03-19T04:44:21.939Z,45.57
2019-03-19T04:46:48.625Z,37.20
2019-03-19T04:49:15.327Z,38.40
2019-03-19T04:51:42.055Z,39.00
2019-03-19T04:54:08.747Z,35.30
2019-03-19T04:56:35.469Z,37.27
2019-03-19T04:59:02.185Z,31.67
2019-03-19T05:01:28.876Z,48.37
2019-03-19T05:03:55.634Z,31.63
2019-03-19T05:06:22.352Z,33.83
2019-03-19T05:08:49.047Z,43.77
2019-03-19T05:11:15.807Z,40.43
2019-03-19T05:13:42.485Z,28.90
2019-03-19T05:16:09.182Z,30.20
2019-03-19T05:18:35.980Z,41.40
2019-03-19T05:21:02.714Z,33.23
2019-03-19T05:23:29.441Z,30.10
2019-03-19T05:25:56.191Z,32.27
2019-03-19T05:28:22.882Z,28.47
2019-03-19T05:30:49.600Z,39.63
2019-03-19T05:33:16.421Z,37.17
2019-03-19T05:35:43.124Z,30.07
2019-03-19T05:38:09.813Z,32.87
2019-03-19T05:40:36.497Z,40.67
2019-03-19T05:43:03.286Z,37.60
2019-03-19T05:45:29.978Z,32.07
2019-03-19T05:47:56.749Z,31.43
2019-03-19T05:50:23.471Z,31.67
2019-03-19T05:52:50.188Z,28.87
2019-03-19T05:55:17.043Z,35.43
2019-03-19T05:57:49.594Z,26.37
2019-03-19T06:00:12.097Z,34.37
2019-03-19T06:02:38.869Z,30.27
2019-03-19T06:05:05.588Z,30.73
2019-03-19T06:07:32.294Z,31.37
2019-03-19T06:09:59.064Z,33.40
2019-03-19T06:12:25.766Z,34.30
2019-03-19T06:14:52.482Z,30.13
2019-03-19T06:17:19.245Z,45.73
2019-03-19T06:19:45.866Z,31.93
2019-03-19T06:22:12.548Z,35.40
2019-03-19T06:24:39.372Z,35.80
2019-03-19T06:27:06.201Z,30.27
2019-03-19T06:29:32.948Z,34.50
2019-03-19T06:32:00.027Z,31.60
2019-03-19T06:34:26.725Z,31.93
2019-03-19T06:36:53.485Z,31.23
2019-03-19T06:39:20.582Z,33.47
2019-03-19T06:41:47.356Z,29.90
2019-03-19T06:44:14.210Z,29.70
2019-03-19T06:46:41.050Z,24.93
2019-03-19T06:49:07.776Z,25.87
2019-03-19T06:51:34.420Z,30.27
2019-03-19T06:54:01.305Z,35.50
2019-03-19T06:56:28.118Z,22.50
2019-03-19T06:58:54.954Z,23.30
2019-03-19T07:01:21.800Z,28.03
2019-03-19T07:03:48.518Z,22.47
2019-03-19T07:06:15.266Z,26.80
2019-03-19T07:08:42.652Z,27.40
2019-03-19T07:11:09.467Z,27.70
2019-03-19T07:13:36.307Z,23.80
2019-03-19T07:16:03.202Z,27.43
2019-03-19T07:18:29.986Z,23.50
2019-03-19T07:20:56.847Z,28.73
2019-03-19T07:23:23.645Z,33.83
2019-03-19T07:25:50.365Z,29.57
2019-03-19T07:28:22.072Z,29.67
2019-03-19T07:30:45.477Z,25.87
2019-03-19T07:33:12.246Z,22.97
2019-03-19T07:35:38.984Z,27.33
2019-03-19T07:38:05.789Z,33.50
2019-03-19T07:40:32.485Z,25.57
2019-03-19T07:42:59.206Z,27.10
2019-03-19T07:45:25.928Z,28.50
2019-03-19T07:47:52.624Z,22.60
2019-03-19T07:50:19.368Z,25.53
2019-03-19T07:52:46.236Z,25.97
2019-03-19T07:55:12.959Z,23.50
2019-03-19T07:57:39.676Z,28.67
2019-03-19T08:00:06.499Z,32.87
2019-03-19T08:02:33.133Z,24.30
2019-03-19T08:04:59.846Z,28.97
2019-03-19T08:07:26.631Z,33.97
2019-03-19T08:09:53.370Z,22.43
2019-03-19T08:12:20.071Z,28.83
2019-03-19T08:14:46.841Z,22.77
2019-03-19T08:17:13.565Z,21.90
2019-03-19T08:19:40.299Z,26.17
2019-03-19T08:22:07.047Z,24.60
2019-03-19T08:24:33.738Z,23.03
2019-03-19T08:27:00.373Z,26.37
2019-03-19T08:29:27.146Z,25.60
2019-03-19T08:31:53.861Z,26.40
2019-03-19T08:34:20.564Z,27.87
2019-03-19T08:36:47.342Z,29.43
2019-03-19T08:39:14.064Z,20.70
2019-03-19T08:41:40.793Z,24.67
2019-03-19T08:44:07.839Z,31.27
2019-03-19T08:46:34.855Z,26.90
2019-03-19T08:49:01.588Z,26.63
2019-03-19T08:51:28.356Z,28.60
2019-03-19T08:53:55.074Z,23.40
2019-03-19T08:56:21.766Z,33.27
2019-03-19T08:58:48.561Z,31.73
2019-03-19T09:01:15.245Z,27.17
2019-03-19T09:03:41.880Z,23.20
2019-03-19T09:06:08.672Z,27.60
2019-03-19T09:08:35.410Z,31.20
2019-03-19T09:11:02.134Z,26.33
2019-03-19T09:13:29.256Z,35.20
2019-03-19T09:15:55.877Z,26.47
2019-03-19T09:18:22.536Z,29.90
2019-03-19T09:20:49.405Z,25.07
2019-03-19T09:23:16.145Z,24.33
2019-03-19T09:25:42.839Z,29.53
2019-03-19T09:28:09.695Z,32.27
2019-03-19T09:30:36.396Z,25.80
2019-03-19T09:33:03.195Z,22.23
2019-03-19T09:35:29.976Z,34.37
2019-03-19T09:37:58.890Z,32.40
2019-03-19T09:40:25.051Z,32.47
2019-03-19T09:42:51.807Z,27.43
2019-03-19T09:45:18.532Z,26.67
2019-03-19T09:47:45.229Z,22.07
2019-03-19T09:50:12.469Z,26.00
2019-03-19T09:52:39.115Z,24.97
2019-03-19T09:55:05.778Z,18.70
2019-03-19T09:57:32.492Z,23.00
2019-03-19T09:59:59.186Z,24.93
2019-03-19T10:02:25.808Z,29.00
2019-03-19T10:04:52.602Z,23.23
2019-03-19T10:07:20.052Z,20.00
2019-03-19T10:09:46.806Z,24.87
2019-03-19T10:12:13.810Z,28.37
2019-03-19T10:14:41.720Z,24.50
2019-03-19T10:17:08.617Z,18.77
2019-03-19T10:19:35.445Z,22.20
2019-03-19T10:22:02.111Z,21.73
2019-03-19T10:24:28.727Z,15.33
2019-03-19T10:26:55.415Z,22.57
2019-03-19T10:29:22.035Z,15.23
2019-03-19T10:31:48.760Z,15.33
2019-03-19T10:34:15.579Z,18.27
2019-03-19T10:36:42.337Z,16.23
2019-03-19T10:39:09.299Z,13.70
2019-03-19T10:41:36.117Z,15.97
2019-03-19T10:44:02.818Z,11.47
2019-03-19T10:46:29.545Z,19.30
2019-03-19T10:48:56.464Z,17.63
2019-03-19T10:51:23.103Z,23.87
2019-03-19T10:53:49.737Z,15.50
2019-03-19T10:56:16.487Z,20.37
2019-03-19T10:58:43.399Z,18.07
2019-03-19T11:01:10.174Z,15.50
2019-03-19T11:03:36.922Z,21.80
2019-03-19T11:06:03.590Z,17.60
2019-03-19T11:08:30.403Z,14.77
2019-03-19T11:10:57.173Z,19.60
2019-03-19T11:13:23.993Z,21.03
2019-03-19T11:15:50.714Z,20.90
2019-03-19T11:18:17.577Z,18.33
2019-03-19T11:20:45.550Z,20.50
2019-03-19T11:23:12.366Z,17.20
2019-03-19T11:25:39.209Z,21.80
2019-03-19T11:28:05.944Z,23.87
2019-03-19T11:30:32.814Z,17.57
2019-03-19T11:32:59.593Z,25.13
2019-03-19T11:35:26.316Z,30.83
2019-03-19T11:37:53.009Z,25.57
2019-03-19T11:40:19.840Z,26.57
2019-03-19T11:42:46.477Z,27.63
2019-03-19T11:45:13.125Z,25.03
2019-03-19T11:47:40.001Z,21.60
2019-03-19T11:50:06.718Z,17.53
2019-03-19T11:52:33.423Z,18.73
2019-03-19T11:55:00.495Z,20.80
2019-03-19T11:57:27.199Z,18.20
2019-03-19T11:59:53.864Z,18.83
2019-03-19T12:02:25.925Z,16.90
2019-03-19T12:04:49.156Z,19.27
2019-03-19T12:07:15.884Z,27.93
2019-03-19T12:09:42.763Z,21.33
2019-03-19T12:12:11.583Z,23.83
2019-03-19T12:14:37.851Z,24.63
2019-03-19T12:17:05.033Z,20.07
2019-03-19T12:19:31.866Z,35.83
2019-03-19T12:21:58.537Z,29.83
2019-03-19T12:24:25.379Z,35.87
2019-03-19T12:26:52.130Z,27.03
2019-03-19T12:29:18.876Z,22.87
2019-03-19T12:31:45.650Z,25.60
2019-03-19T12:34:12.303Z,33.40
2019-03-19T12:36:38.997Z,18.63
2019-03-19T12:39:05.778Z,21.37
2019-03-19T12:41:32.515Z,28.03
2019-03-19T12:43:59.233Z,21.80
2019-03-19T12:46:26.055Z,37.30
2019-03-19T12:48:54.388Z,30.03
2019-03-19T12:51:21.239Z,32.83
2019-03-19T12:53:47.999Z,28.63
2019-03-19T12:56:14.700Z,23.73
2019-03-19T12:58:41.403Z,27.07
2019-03-19T13:01:08.202Z,22.10
2019-03-19T13:03:34.991Z,26.80
2019-03-19T13:06:01.714Z,18.37
2019-03-19T13:08:28.717Z,33.63
2019-03-19T13:10:55.493Z,20.33
2019-03-19T13:13:22.338Z,22.77
2019-03-19T13:15:49.359Z,21.47
2019-03-19T13:18:16.157Z,30.50
2019-03-19T13:20:42.874Z,26.30
2019-03-19T13:23:09.638Z,24.03
2019-03-19T13:25:36.347Z,21.30
2019-03-19T13:28:02.968Z,29.33
2019-03-19T13:30:29.670Z,31.27
2019-03-19T13:32:56.417Z,22.43
2019-03-19T13:35:23.099Z,35.17
2019-03-19T13:37:49.804Z,27.63
2019-03-19T13:40:16.580Z,33.43
2019-03-19T13:42:43.339Z,26.23
2019-03-19T13:45:10.152Z,22.87
2019-03-19T13:47:36.804Z,26.17
2019-03-19T13:50:03.737Z,19.63
2019-03-19T13:52:30.664Z,16.70
2019-03-19T13:54:57.865Z,20.00
2019-03-19T13:57:24.602Z,24.13
2019-03-19T13:59:51.394Z,19.47
2019-03-19T14:02:18.078Z,19.47
2019-03-19T14:04:44.781Z,21.93
2019-03-19T14:07:13.936Z,25.00
2019-03-19T14:09:40.872Z,20.57
2019-03-19T14:12:07.523Z,24.43
2019-03-19T14:14:34.603Z,31.80
2019-03-19T14:17:01.365Z,20.57
2019-03-19T14:19:28.091Z,20.40
2019-03-19T14:21:54.890Z,18.57
2019-03-19T14:24:21.618Z,21.07
2019-03-19T14:26:50.351Z,22.00
2019-03-19T14:29:16.804Z,17.70
2019-03-19T14:31:43.528Z,20.20
2019-03-19T14:34:10.232Z,19.10
2019-03-19T14:36:36.929Z,15.80
2019-03-19T14:39:04.824Z,16.07
2019-03-19T14:41:31.677Z,18.73
2019-03-19T14:43:58.456Z,30.87
2019-03-19T14:46:25.178Z,22.37
2019-03-19T14:48:51.880Z,19.13
2019-03-19T14:51:18.576Z,20.50
2019-03-19T14:53:45.300Z,25.70
2019-03-19T14:56:11.929Z,19.07
2019-03-19T14:58:38.736Z,17.83
2019-03-19T15:01:05.460Z,23.30
2019-03-19T15:03:32.153Z,27.83
2019-03-19T15:05:58.905Z,16.73
2019-03-19T15:08:25.726Z,32.63
2019-03-19T15:10:52.477Z,28.50
2019-03-19T15:13:19.317Z,20.97
2019-03-19T15:15:46.014Z,17.43
2019-03-19T15:18:12.818Z,16.93
2019-03-19T15:20:39.982Z,23.83
2019-03-19T15:23:06.780Z,15.90
2019-03-19T15:25:33.626Z,18.27
2019-03-19T15:28:00.464Z,17.47
2019-03-19T15:30:27.201Z,21.87
2019-03-19T15:32:53.951Z,17.10
2019-03-19T15:35:21.190Z,20.67
2019-03-19T15:37:47.886Z,18.77
2019-03-19T15:40:14.613Z,21.40
2019-03-19T15:42:41.471Z,21.03
2019-03-19T15:45:08.163Z,21.07
2019-03-19T15:47:34.907Z,23.57
2019-03-19T15:50:01.671Z,18.67
2019-03-19T15:52:28.321Z,21.87
2019-03-19T15:54:55.122Z,21.80
2019-03-19T15:57:22.067Z,28.97
2019-03-19T15:59:48.899Z,21.77
2019-03-19T16:02:15.662Z,18.57
2019-03-19T16:04:42.507Z,23.53
2019-03-19T16:07:09.221Z,22.70
2019-03-19T16:09:35.923Z,19.50
2019-03-19T16:12:03.069Z,32.73
2019-03-19T16:14:29.749Z,26.60
2019-03-19T16:16:56.451Z,50.70
2019-03-19T16:19:23.739Z,29.03
2019-03-19T16:21:50.437Z,32.77
2019-03-19T16:24:17.210Z,35.17
2019-03-19T16:26:44.049Z,22.80
2019-03-19T16:29:10.894Z,18.07
2019-03-19T16:31:37.728Z,24.37
2019-03-19T16:34:04.584Z,29.80
2019-03-19T16:36:31.307Z,33.03
2019-03-19T16:38:57.946Z,29.37
2019-03-19T16:41:24.875Z,28.80
2019-03-19T16:43:51.654Z,34.60
2019-03-19T16:46:18.485Z,59.00
2019-03-19T16:48:45.347Z,27.13
2019-03-19T16:51:12.201Z,26.60
2019-03-19T16:53:38.996Z,25.80
2019-03-19T16:56:07.606Z,25.73
2019-03-19T16:58:34.266Z,25.07
2019-03-19T17:01:01.069Z,29.57
2019-03-19T17:03:27.945Z,30.20
2019-03-19T17:05:54.745Z,28.27
2019-03-19T17:08:21.686Z,34.27
2019-03-19T17:10:48.434Z,27.30
2019-03-19T17:13:15.250Z,25.30
2019-03-19T17:15:41.884Z,18.70
2019-03-19T17:18:08.758Z,18.77
2019-03-19T17:20:35.472Z,23.47
2019-03-19T17:23:02.192Z,32.57
2019-03-19T17:25:28.967Z,34.13
2019-03-19T17:27:55.719Z,31.27
2019-03-19T17:30:22.438Z,30.67
2019-03-19T17:32:49.244Z,31.77
2019-03-19T17:35:15.995Z,23.10
2019-03-19T17:37:42.671Z,28.43
2019-03-19T17:40:09.387Z,28.23
2019-03-19T17:42:36.069Z,27.63
2019-03-19T17:45:02.777Z,26.53
2019-03-19T17:47:29.596Z,27.00
2019-03-19T17:49:56.328Z,29.43
2019-03-19T17:52:23.009Z,27.70
2019-03-19T17:54:49.797Z,24.23
2019-03-19T17:57:16.498Z,28.97
2019-03-19T17:59:43.217Z,25.30
2019-03-19T18:02:10.013Z,22.03
2019-03-19T18:04:36.776Z,28.30
2019-03-19T18:07:03.478Z,25.30
2019-03-19T18:09:30.247Z,36.07
2019-03-19T18:11:56.970Z,28.23
2019-03-19T18:14:23.705Z,39.07
2019-03-19T18:16:50.518Z,31.23
2019-03-19T18:19:17.259Z,27.43
2019-03-19T18:21:43.979Z,45.90
2019-03-19T18:24:10.816Z,35.70
2019-03-19T18:26:37.527Z,32.87
2019-03-19T18:29:04.238Z,32.67
2019-03-19T18:31:30.992Z,40.50
2019-03-19T18:33:57.725Z,39.47
2019-03-19T18:36:24.457Z,40.30
2019-03-19T18:38:51.231Z,31.27
2019-03-19T18:41:18.123Z,37.87
2019-03-19T18:43:44.766Z,33.07
2019-03-19T18:46:11.562Z,42.90
2019-03-19T18:48:39.846Z,37.07
2019-03-19T18:51:06.695Z,37.90
2019-03-19T18:53:33.939Z,42.23
2019-03-19T18:56:00.678Z,51.73
2019-03-19T18:58:27.395Z,55.00
2019-03-19T19:00:54.178Z,46.40
2019-03-19T19:03:21.098Z,47.20
2019-03-19T19:05:47.967Z,50.77
2019-03-19T19:08:15.225Z,49.40
2019-03-19T19:10:41.892Z,47.97
2019-03-19T19:13:08.640Z,49.80
2019-03-19T19:15:35.421Z,44.33
2019-03-19T19:18:02.115Z,41.73
2019-03-19T19:20:28.824Z,52.47
2019-03-19T19:22:55.585Z,53.77
2019-03-19T19:25:22.333Z,43.40
2019-03-19T19:27:49.091Z,44.73
2019-03-19T19:30:15.978Z,42.83
2019-03-19T19:32:42.794Z,47.00
2019-03-19T19:35:09.660Z,37.00
2019-03-19T19:37:36.582Z,38.57
2019-03-19T19:40:03.275Z,40.37
2019-03-19T19:42:30.142Z,46.10
2019-03-19T19:44:56.855Z,42.53
2019-03-19T19:47:23.599Z,38.40
2019-03-19T19:49:50.281Z,47.17
2019-03-19T19:52:17.017Z,49.23
2019-03-19T19:54:43.712Z,49.50
2019-03-19T19:57:10.347Z,69.17
2019-03-19T19:59:37.134Z,56.60
2019-03-19T20:02:03.834Z,62.67
2019-03-19T20:04:30.560Z,71.50
2019-03-19T20:06:57.311Z,56.97
2019-03-19T20:09:23.935Z,55.20
2019-03-19T20:11:50.736Z,54.03
2019-03-19T20:14:17.563Z,64.37
2019-03-19T20:16:44.403Z,62.17
2019-03-19T20:19:11.144Z,55.40
2019-03-19T20:21:37.977Z,58.60
2019-03-19T20:24:04.827Z,56.03
2019-03-19T20:26:31.559Z,56.70
2019-03-19T20:28:58.361Z,69.53
2019-03-19T20:31:25.142Z,68.20
2019-03-19T20:33:51.894Z,75.20
2019-03-19T20:36:18.724Z,83.27
2019-03-19T20:38:45.459Z,74.23
2019-03-19T20:41:12.224Z,69.07
2019-03-19T20:43:39.044Z,81.10
2019-03-19T20:46:05.832Z,76.40
2019-03-19T20:48:32.812Z,61.33
2019-03-19T20:50:59.813Z,73.97
2019-03-19T20:53:26.551Z,73.60
2019-03-19T20:55:53.387Z,78.67
2019-03-19T20:58:20.177Z,65.13
2019-03-19T21:00:46.867Z,70.57
2019-03-19T21:03:13.507Z,67.57
2019-03-19T21:05:40.268Z,70.73
2019-03-19T21:08:06.996Z,82.73
2019-03-19T21:10:33.734Z,77.03
2019-03-19T21:13:00.547Z,76.67
2019-03-19T21:15:27.250Z,76.23
2019-03-19T21:17:53.990Z,80.00
2019-03-19T21:20:20.758Z,83.00
2019-03-19T21:22:47.500Z,82.60
2019-03-19T21:25:14.220Z,77.73
2019-03-19T21:27:41.020Z,77.13
2019-03-19T21:30:07.754Z,74.77
2019-03-19T21:32:34.600Z,64.77
2019-03-19T21:35:01.470Z,68.13
2019-03-19T21:37:28.170Z,77.50
2019-03-19T21:39:54.861Z,68.50
2019-03-19T21:42:21.599Z,75.50
2019-03-19T21:44:48.324Z,82.23
2019-03-19T21:47:15.029Z,82.50
2019-03-19T21:49:41.814Z,77.10
2019-03-19T21:52:08.529Z,76.83
2019-03-19T21:54:35.295Z,85.13
2019-03-19T21:57:02.054Z,84.13
2019-03-19T21:59:28.985Z,82.03
2019-03-19T22:01:55.633Z,91.10
2019-03-19T22:04:22.407Z,87.03
2019-03-19T22:06:49.138Z,87.73
2019-03-19T22:09:15.848Z,76.60
2019-03-19T22:11:42.625Z,91.27
2019-03-19T22:14:09.338Z,90.73
2019-03-19T22:16:36.062Z,99.43
2019-03-19T22:19:02.763Z,84.50
2019-03-19T22:21:29.497Z,87.00
2019-03-19T22:23:56.206Z,95.43
2019-03-19T22:26:22.955Z,119.47
2019-03-19T22:28:49.683Z,103.77
2019-03-19T22:31:16.402Z,118.37
2019-03-19T22:33:43.193Z,116.53
2019-03-19T22:36:11.833Z,102.23
2019-03-19T22:38:38.454Z,121.93
2019-03-19T22:41:05.438Z,130.90
2019-03-19T22:43:32.287Z,122.03
2019-03-19T22:45:58.942Z,101.87
2019-03-19T22:48:25.867Z,114.83
2019-03-19T22:50:52.562Z,107.03
2019-03-19T22:53:19.222Z,134.50
2019-03-19T22:55:45.995Z,107.17
2019-03-19T22:58:12.691Z,100.20
2019-03-19T23:00:39.381Z,110.63
2019-03-19T23:03:06.082Z,115.67
2019-03-19T23:05:32.783Z,105.53
2019-03-19T23:07:59.486Z,112.33
2019-03-19T23:10:26.273Z,132.67
2019-03-19T23:12:52.965Z,117.50
2019-03-19T23:15:19.665Z,131.67
2019-03-19T23:17:46.459Z,117.20
2019-03-19T23:20:13.185Z,133.50
2019-03-19T23:22:39.892Z,108.23
2019-03-19T23:25:06.631Z,105.30
2019-03-19T23:27:33.260Z,131.53
2019-03-19T23:29:59.893Z,112.53
2019-03-19T23:32:26.644Z,117.60
2019-03-19T23:34:53.263Z,111.83
2019-03-19T23:37:19.972Z,116.83
2019-03-19T23:39:46.722Z,123.13
2019-03-19T23:42:13.386Z,124.17
2019-03-19T23:44:40.119Z,115.73
2019-03-19T23:47:06.944Z,112.57
2019-03-19T23:49:33.691Z,113.63
2019-03-19T23:52:00.392Z,123.80
2019-03-19T23:54:27.165Z,103.53
2019-03-19T23:56:53.899Z,115.03
2019-03-19T23:59:20.650Z,128.53
